createdAt,value
2019-02-26T00:01:50.737Z,20.90
2019-02-26T00:05:56.674Z,18.93
2019-02-26T00:10:00.058Z,15.93
2019-02-26T00:14:04.250Z,16.37
2019-02-26T00:18:11.357Z,16.07
2019-02-26T00:22:13.793Z,16.00
2019-02-26T00:26:18.469Z,20.97
2019-02-26T00:30:22.146Z,17.70
2019-02-26T00:34:25.142Z,16.77
2019-02-26T00:38:29.407Z,17.10
2019-02-26T00:42:34.243Z,16.47
2019-02-26T00:46:39.528Z,15.53
2019-02-26T00:50:42.411Z,18.63
2019-02-26T00:54:45.394Z,15.20
2019-02-26T00:58:50.300Z,17.30
2019-02-26T01:02:53.366Z,14.60
2019-02-26T01:06:57.292Z,16.40
2019-02-26T01:11:02.152Z,14.67
2019-02-26T01:15:11.491Z,16.60
2019-02-26T01:19:15.293Z,18.13
2019-02-26T01:23:21.601Z,17.17
2019-02-26T01:27:24.284Z,16.53
2019-02-26T01:31:29.092Z,17.80
2019-02-26T01:35:33.134Z,15.93
2019-02-26T01:39:38.338Z,14.87
2019-02-26T01:43:42.881Z,14.03
2019-02-26T01:47:48.244Z,16.97
2019-02-26T01:51:51.863Z,13.90
2019-02-26T01:55:55.674Z,13.33
2019-02-26T01:59:58.655Z,14.27
2019-02-26T02:04:01.642Z,13.37
2019-02-26T02:08:04.632Z,15.03
2019-02-26T02:12:08.802Z,18.17
2019-02-26T02:16:12.516Z,18.07
2019-02-26T02:20:18.489Z,15.70
2019-02-26T02:24:22.332Z,15.60
2019-02-26T02:28:26.335Z,18.00
2019-02-26T02:32:33.887Z,15.53
2019-02-26T02:36:35.264Z,14.63
2019-02-26T02:40:40.181Z,17.67
2019-02-26T02:44:46.763Z,15.30
2019-02-26T02:48:49.514Z,16.33
2019-02-26T02:52:53.496Z,14.77
2019-02-26T02:56:59.953Z,16.60
2019-02-26T03:01:02.433Z,15.30
2019-02-26T03:05:07.119Z,15.70
2019-02-26T03:09:14.483Z,16.77
2019-02-26T03:13:20.128Z,13.10
2019-02-26T03:17:22.103Z,13.53
2019-02-26T03:21:27.795Z,15.20
2019-02-26T03:25:29.999Z,17.27
2019-02-26T03:29:32.987Z,16.43
2019-02-26T03:33:36.180Z,16.50
2019-02-26T03:37:39.172Z,17.63
2019-02-26T03:41:46.065Z,15.27
2019-02-26T03:45:48.986Z,15.30
2019-02-26T03:49:52.030Z,15.20
2019-02-26T03:53:55.042Z,15.50
2019-02-26T03:58:01.404Z,17.67
2019-02-26T04:02:03.138Z,15.67
2019-02-26T04:06:09.166Z,18.00
2019-02-26T04:10:11.730Z,15.20
2019-02-26T04:14:15.362Z,16.73
2019-02-26T04:18:19.610Z,15.57
2019-02-26T04:22:26.174Z,16.60
2019-02-26T04:27:00.671Z,16.60
2019-02-26T04:31:10.700Z,14.60
2019-02-26T04:35:16.259Z,14.60
2019-02-26T04:39:41.747Z,16.07
2019-02-26T04:43:58.493Z,12.77
2019-02-26T04:48:05.103Z,14.60
2019-02-26T04:52:10.932Z,16.80
2019-02-26T04:56:15.063Z,14.00
2019-02-26T05:00:18.200Z,14.73
2019-02-26T05:04:21.196Z,19.23
2019-02-26T05:08:24.394Z,15.60
2019-02-26T05:12:30.308Z,16.97
2019-02-26T05:16:34.718Z,15.27
2019-02-26T05:20:39.292Z,16.33
2019-02-26T05:24:44.399Z,19.67
2019-02-26T05:28:49.047Z,17.33
2019-02-26T05:32:54.286Z,22.20
2019-02-26T05:36:59.648Z,17.57
2019-02-26T05:41:01.805Z,15.97
2019-02-26T05:45:09.152Z,14.80
2019-02-26T05:49:15.765Z,18.57
2019-02-26T05:53:16.306Z,16.47
2019-02-26T05:57:27.622Z,18.07
2019-02-26T06:01:25.859Z,16.40
2019-02-26T06:05:29.382Z,21.07
2019-02-26T06:09:33.811Z,17.63
2019-02-26T06:13:38.236Z,21.20
2019-02-26T06:17:45.251Z,17.87
2019-02-26T06:21:49.159Z,18.97
2019-02-26T06:25:55.234Z,18.77
2019-02-26T06:29:58.158Z,16.47
2019-02-26T06:34:05.680Z,23.83
2019-02-26T06:38:08.978Z,16.53
2019-02-26T06:42:12.189Z,16.13
2019-02-26T06:46:18.410Z,15.97
2019-02-26T06:50:21.410Z,14.20
2019-02-26T06:54:26.302Z,18.07
2019-02-26T06:58:29.296Z,14.63
2019-02-26T07:02:32.290Z,15.13
2019-02-26T07:06:35.276Z,18.47
2019-02-26T07:10:38.275Z,18.13
2019-02-26T07:14:41.260Z,20.00
2019-02-26T07:18:44.261Z,17.10
2019-02-26T07:22:49.621Z,17.13
2019-02-26T07:26:52.154Z,14.43
2019-02-26T07:30:55.143Z,14.20
2019-02-26T07:34:58.255Z,14.97
2019-02-26T07:39:01.340Z,15.43
2019-02-26T07:43:06.969Z,14.40
2019-02-26T07:47:11.271Z,14.80
2019-02-26T07:51:14.306Z,13.60
2019-02-26T07:55:17.559Z,13.37
2019-02-26T07:59:27.451Z,16.40
2019-02-26T08:03:26.762Z,13.43
2019-02-26T08:07:30.814Z,16.60
2019-02-26T08:11:36.206Z,15.43
2019-02-26T08:15:39.903Z,14.40
2019-02-26T08:19:46.628Z,15.50
2019-02-26T08:23:48.831Z,12.07
2019-02-26T08:27:54.059Z,14.37
2019-02-26T08:31:59.616Z,12.07
2019-02-26T08:36:02.943Z,13.90
2019-02-26T08:40:09.487Z,14.43
2019-02-26T08:44:12.628Z,14.70
2019-02-26T08:48:17.805Z,16.37
2019-02-26T08:52:24.482Z,14.70
2019-02-26T08:56:28.302Z,13.27
2019-02-26T09:00:34.203Z,22.63
2019-02-26T09:04:38.376Z,10.63
2019-02-26T09:08:43.143Z,9.87
2019-02-26T09:12:48.658Z,11.60
2019-02-26T09:16:52.539Z,11.67
2019-02-26T09:20:57.082Z,12.50
2019-02-26T09:25:02.345Z,10.80
2019-02-26T09:29:04.992Z,11.33
2019-02-26T09:33:09.081Z,11.87
2019-02-26T09:37:12.886Z,10.63
2019-02-26T09:41:16.622Z,10.43
2019-02-26T09:45:28.616Z,11.77
2019-02-26T09:49:33.250Z,11.20
2019-02-26T09:53:36.331Z,12.63
2019-02-26T09:57:39.336Z,10.90
2019-02-26T10:01:42.829Z,12.73
2019-02-26T10:05:48.244Z,14.00
2019-02-26T10:09:50.970Z,12.63
2019-02-26T10:13:53.975Z,11.90
2019-02-26T10:18:00.887Z,13.13
2019-02-26T10:22:03.544Z,13.27
2019-02-26T10:26:08.409Z,11.40
2019-02-26T10:30:16.098Z,13.37
2019-02-26T10:34:20.876Z,15.10
2019-02-26T10:38:24.202Z,13.00
2019-02-26T10:42:28.691Z,13.00
2019-02-26T10:46:32.661Z,13.30
2019-02-26T10:50:40.377Z,14.23
2019-02-26T10:54:44.721Z,16.23
2019-02-26T10:58:48.087Z,13.20
2019-02-26T11:02:54.092Z,24.40
2019-02-26T11:06:55.999Z,14.17
2019-02-26T11:10:59.026Z,12.83
2019-02-26T11:15:04.849Z,12.93
2019-02-26T11:19:10.376Z,12.60
2019-02-26T11:23:16.097Z,13.10
2019-02-26T11:27:19.159Z,13.60
2019-02-26T11:31:25.331Z,13.10
2019-02-26T11:35:27.595Z,12.97
2019-02-26T11:54:26.276Z,9.97
2019-02-26T11:58:29.480Z,13.63
2019-02-26T12:02:34.398Z,11.33
2019-02-26T12:06:38.179Z,10.50
2019-02-26T12:10:41.189Z,10.57
2019-02-26T12:14:47.957Z,20.90
2019-02-26T12:18:49.140Z,15.33
2019-02-26T12:22:53.058Z,15.67
2019-02-26T12:26:57.056Z,8.00
2019-02-26T12:31:01.235Z,9.13
2019-02-26T12:35:08.597Z,8.20
2019-02-26T12:39:11.284Z,7.77
2019-02-26T12:43:16.346Z,7.50
2019-02-26T12:47:21.800Z,7.50
2019-02-26T12:51:26.285Z,8.53
2019-02-26T12:55:32.837Z,6.50
2019-02-26T12:59:35.502Z,8.20
2019-02-26T13:03:39.879Z,8.80
2019-02-26T13:07:43.506Z,8.00
2019-02-26T13:15:51.456Z,9.17
2019-02-26T13:19:58.921Z,7.10
2019-02-26T13:24:11.485Z,9.83
2019-02-26T13:28:04.283Z,7.93
2019-02-26T13:32:09.021Z,8.20
2019-02-26T13:36:13.725Z,8.27
2019-02-26T13:40:22.492Z,8.90
2019-02-26T13:44:25.675Z,8.97
2019-02-26T13:48:28.663Z,8.10
2019-02-26T13:52:31.675Z,6.90
2019-02-26T13:56:36.734Z,7.77
2019-02-26T14:00:40.053Z,7.90
2019-02-26T14:04:43.055Z,6.07
2019-02-26T14:08:46.097Z,5.73
2019-02-26T14:12:49.153Z,6.03
2019-02-26T14:16:52.169Z,7.23
2019-02-26T14:20:55.180Z,7.30
2019-02-26T14:24:58.180Z,6.77
2019-02-26T14:29:01.220Z,5.43
2019-02-26T14:33:04.695Z,7.23
2019-02-26T14:37:07.857Z,4.40
2019-02-26T14:41:10.874Z,6.97
2019-02-26T14:45:19.698Z,5.60
2019-02-26T14:49:22.767Z,5.50
2019-02-26T14:53:27.555Z,5.00
2019-02-26T14:57:31.299Z,4.00
2019-02-26T15:01:34.308Z,4.17
2019-02-26T15:05:37.469Z,4.53
2019-02-26T15:09:40.483Z,4.33
2019-02-26T15:13:43.488Z,3.40
2019-02-26T15:17:46.521Z,6.30
2019-02-26T15:21:49.525Z,2.37
2019-02-26T15:25:52.541Z,2.47
2019-02-26T15:29:55.571Z,2.60
2019-02-26T15:33:58.613Z,2.57
2019-02-26T15:38:01.610Z,2.17
2019-02-26T15:42:04.675Z,5.03
2019-02-26T15:46:07.689Z,2.97
2019-02-26T15:50:13.678Z,2.53
2019-02-26T15:54:16.734Z,4.40
2019-02-26T15:58:21.341Z,2.83
2019-02-26T16:02:25.978Z,3.10
2019-02-26T16:06:29.624Z,2.47
2019-02-26T16:10:32.830Z,2.97
2019-02-26T16:14:35.924Z,2.77
2019-02-26T16:18:39.435Z,7.17
2019-02-26T16:22:42.546Z,1.93
2019-02-26T16:26:45.624Z,2.40
2019-02-26T16:30:48.744Z,2.10
2019-02-26T16:34:52.507Z,2.40
2019-02-26T16:38:56.118Z,4.23
2019-02-26T16:42:59.130Z,3.93
2019-02-26T16:47:02.277Z,6.50
2019-02-26T16:51:05.280Z,12.93
2019-02-26T16:55:13.469Z,10.03
2019-02-26T16:59:16.461Z,6.10
2019-02-26T17:03:19.560Z,7.23
2019-02-26T17:07:22.606Z,6.37
2019-02-26T17:11:25.614Z,14.87
2019-02-26T17:15:33.056Z,9.30
2019-02-26T17:19:36.109Z,2.67
2019-02-26T17:23:39.183Z,2.37
2019-02-26T17:27:42.176Z,2.50
2019-02-26T17:31:45.177Z,4.70
2019-02-26T17:35:48.272Z,3.83
2019-02-26T17:39:51.285Z,3.73
2019-02-26T17:43:54.278Z,3.50
2019-02-26T17:47:59.420Z,5.20
2019-02-26T17:52:02.623Z,19.20
2019-02-26T17:56:05.689Z,6.00
2019-02-26T18:00:20.228Z,6.70
2019-02-26T18:04:23.563Z,4.50
2019-02-26T18:08:26.797Z,5.80
2019-02-26T18:12:29.807Z,5.53
2019-02-26T18:16:34.506Z,5.50
2019-02-26T18:20:37.619Z,6.10
2019-02-26T18:24:40.623Z,4.80
2019-02-26T18:28:47.415Z,6.10
2019-02-26T18:32:50.420Z,8.53
2019-02-26T18:36:53.687Z,12.70
2019-02-26T18:41:00.529Z,8.80
2019-02-26T18:45:01.885Z,10.30
2019-02-26T18:49:05.476Z,16.33
2019-02-26T18:53:08.520Z,9.73
2019-02-26T18:57:12.142Z,13.80
2019-02-26T19:01:16.313Z,14.50
2019-02-26T19:05:21.069Z,13.30
2019-02-26T19:09:24.457Z,20.43
2019-02-26T19:13:27.473Z,12.83
2019-02-26T19:17:30.511Z,13.83
2019-02-26T19:21:33.574Z,13.57
2019-02-26T19:25:36.647Z,12.27
2019-02-26T19:29:39.744Z,13.97
2019-02-26T19:33:42.900Z,14.63
2019-02-26T19:37:55.887Z,15.77
2019-02-26T19:41:59.549Z,16.83
2019-02-26T19:46:02.825Z,17.20
2019-02-26T19:50:11.860Z,17.87
2019-02-26T19:54:15.492Z,17.50
2019-02-26T19:58:18.609Z,21.80
2019-02-26T20:02:22.019Z,23.90
2019-02-26T20:06:26.863Z,20.47
2019-02-26T20:10:30.048Z,22.97
2019-02-26T20:14:33.069Z,44.97
2019-02-26T20:18:36.220Z,36.97
2019-02-26T20:22:39.241Z,21.70
2019-02-26T20:26:42.249Z,21.30
2019-02-26T20:30:45.315Z,21.77
2019-02-26T20:34:48.312Z,15.47
2019-02-26T20:38:51.375Z,15.20
2019-02-26T20:42:54.398Z,13.50
2019-02-26T20:46:58.063Z,13.20
2019-02-26T20:51:01.940Z,13.07
2019-02-26T20:55:19.174Z,16.37
2019-02-26T20:59:22.888Z,15.13
2019-02-26T21:03:27.080Z,16.90
2019-02-26T21:07:30.072Z,17.07
2019-02-26T21:11:33.108Z,16.97
2019-02-26T21:15:36.112Z,16.43
2019-02-26T21:19:39.120Z,16.20
2019-02-26T21:23:42.144Z,18.47
2019-02-26T21:27:45.201Z,15.03
2019-02-26T21:31:49.756Z,15.43
2019-02-26T21:35:54.326Z,15.27
2019-02-26T21:39:57.870Z,17.97
2019-02-26T21:44:00.873Z,16.33
2019-02-26T21:48:03.872Z,30.23
2019-02-26T21:52:08.935Z,20.83
2019-02-26T21:56:15.658Z,18.07
2019-02-26T22:00:21.229Z,18.70
2019-02-26T22:04:24.689Z,15.07
2019-02-26T22:08:27.755Z,18.27
2019-02-26T22:12:31.045Z,19.27
2019-02-26T22:16:34.048Z,16.97
2019-02-26T22:20:37.056Z,16.60
2019-02-26T22:24:40.741Z,19.90
2019-02-26T22:28:43.863Z,28.87
2019-02-26T22:32:46.877Z,31.10
2019-02-26T22:36:49.885Z,27.43
2019-02-26T22:40:52.897Z,34.70
2019-02-26T22:44:55.904Z,32.73
2019-02-26T22:48:58.931Z,28.93
2019-02-26T22:53:04.045Z,15.90
2019-02-26T22:57:06.839Z,10.30
2019-02-26T23:01:17.808Z,12.27
2019-02-26T23:05:25.433Z,12.20
2019-02-26T23:09:28.727Z,12.00
2019-02-26T23:13:32.602Z,13.67
2019-02-26T23:17:35.794Z,12.07
2019-02-26T23:21:39.660Z,13.20
2019-02-26T23:25:42.670Z,12.93
2019-02-26T23:29:45.700Z,12.83
2019-02-26T23:33:49.132Z,12.40
2019-02-26T23:37:53.254Z,11.00
2019-02-26T23:41:56.351Z,13.13
2019-02-26T23:45:59.357Z,15.37
2019-02-26T23:50:04.400Z,13.90
2019-02-26T23:54:07.976Z,14.17
2019-02-26T23:58:11.622Z,13.90
